Meriden, Kansas
Current Conditions -  °F | °C
As of 10:53 PM on Wednesday 22 Oct 2014 (Local Time) from KTOP Reporting Station
Broken Clouds Broken Clouds  
Wind Chill: 67°   Ceiling: 7500
Heat Index: 67°   Visibility: 10mi
Dew Point: 58°   Wind: 14mph
Humidity: 73%   Direction: 150°SSE
Pressure: 30.08"   Gusts: NA
Location:  39.19°N, 95.57°W
Report Text: KTOP 230353Z AUTO 15012KT 10SM BKN075 19/14 A3008 RMK AO2 SLP181 T01940144
Loading
Personal Weather Stations






























Interactive Weather Map
Tropical Storm Tracking
New forecast layout! Learn more

10-Day Weather Forecast

Advertisements
Track Severe Weather on mobile